sensor_id;sensor_type;location;lat;lon;timestamp;P1;durP1;ratioP1;P2;durP2;ratioP2
58017;SDS011;43810;50.860;19.226;2023-07-20T00:01:14;18.08;;;7.50;;
58017;SDS011;43810;50.860;19.226;2023-07-20T00:03:40;16.70;;;7.70;;
58017;SDS011;43810;50.860;19.226;2023-07-20T00:06:06;16.42;;;7.90;;
58017;SDS011;43810;50.860;19.226;2023-07-20T00:08:32;15.95;;;7.43;;
58017;SDS011;43810;50.860;19.226;2023-07-20T00:10:58;17.42;;;8.13;;
58017;SDS011;43810;50.860;19.226;2023-07-20T00:13:24;13.48;;;7.22;;
58017;SDS011;43810;50.860;19.226;2023-07-20T00:15:50;14.27;;;7.30;;
58017;SDS011;43810;50.860;19.226;2023-07-20T00:18:17;14.57;;;7.85;;
58017;SDS011;43810;50.860;19.226;2023-07-20T00:20:42;18.10;;;8.15;;
58017;SDS011;43810;50.860;19.226;2023-07-20T00:23:09;13.63;;;7.70;;
58017;SDS011;43810;50.860;19.226;2023-07-20T00:25:34;15.75;;;7.97;;
58017;SDS011;43810;50.860;19.226;2023-07-20T00:28:01;11.15;;;6.78;;
58017;SDS011;43810;50.860;19.226;2023-07-20T00:30:27;12.15;;;7.55;;
58017;SDS011;43810;50.860;19.226;2023-07-20T00:32:53;14.95;;;7.53;;
58017;SDS011;43810;50.860;19.226;2023-07-20T00:35:18;14.02;;;7.28;;
58017;SDS011;43810;50.860;19.226;2023-07-20T00:37:44;15.68;;;7.57;;
58017;SDS011;43810;50.860;19.226;2023-07-20T00:40:10;12.38;;;7.15;;
58017;SDS011;43810;50.860;19.226;2023-07-20T00:42:36;16.67;;;7.97;;
58017;SDS011;43810;50.860;19.226;2023-07-20T00:45:02;19.60;;;8.18;;
58017;SDS011;43810;50.860;19.226;2023-07-20T00:47:28;13.27;;;8.00;;
58017;SDS011;43810;50.860;19.226;2023-07-20T00:49:54;13.10;;;7.57;;
58017;SDS011;43810;50.860;19.226;2023-07-20T00:52:21;20.90;;;9.32;;
58017;SDS011;43810;50.860;19.226;2023-07-20T00:54:48;18.95;;;9.50;;
58017;SDS011;43810;50.860;19.226;2023-07-20T00:57:15;22.95;;;9.82;;
58017;SDS011;43810;50.860;19.226;2023-07-20T00:59:42;57.55;;;17.35;;
58017;SDS011;43810;50.860;19.226;2023-07-20T01:02:09;50.05;;;15.68;;
58017;SDS011;43810;50.860;19.226;2023-07-20T01:04:35;26.52;;;10.77;;
58017;SDS011;43810;50.860;19.226;2023-07-20T01:07:03;17.10;;;8.07;;
58017;SDS011;43810;50.860;19.226;2023-07-20T01:09:48;17.60;;;8.40;;
58017;SDS011;43810;50.860;19.226;2023-07-20T01:15:20;15.07;;;8.18;;
58017;SDS011;43810;50.860;19.226;2023-07-20T01:17:46;13.95;;;7.30;;
58017;SDS011;43810;50.860;19.226;2023-07-20T01:20:13;14.23;;;7.28;;
58017;SDS011;43810;50.860;19.226;2023-07-20T01:33:09;20.15;;;8.68;;
58017;SDS011;43810;50.860;19.226;2023-07-20T01:35:38;18.48;;;8.57;;
58017;SDS011;43810;50.860;19.226;2023-07-20T01:38:08;18.30;;;9.10;;
58017;SDS011;43810;50.860;19.226;2023-07-20T01:40:35;16.33;;;8.50;;
58017;SDS011;43810;50.860;19.226;2023-07-20T01:43:02;11.30;;;7.32;;
58017;SDS011;43810;50.860;19.226;2023-07-20T01:45:28;12.60;;;6.80;;
58017;SDS011;43810;50.860;19.226;2023-07-20T01:47:54;15.75;;;6.20;;
58017;SDS011;43810;50.860;19.226;2023-07-20T01:50:20;9.35;;;4.57;;
58017;SDS011;43810;50.860;19.226;2023-07-20T01:52:45;8.00;;;4.15;;
58017;SDS011;43810;50.860;19.226;2023-07-20T01:55:11;7.88;;;3.60;;
58017;SDS011;43810;50.860;19.226;2023-07-20T01:57:37;7.05;;;4.07;;
58017;SDS011;43810;50.860;19.226;2023-07-20T02:00:03;7.05;;;4.18;;
58017;SDS011;43810;50.860;19.226;2023-07-20T02:02:29;8.57;;;4.40;;
58017;SDS011;43810;50.860;19.226;2023-07-20T02:04:55;6.68;;;4.35;;
58017;SDS011;43810;50.860;19.226;2023-07-20T02:07:21;8.57;;;5.13;;
58017;SDS011;43810;50.860;19.226;2023-07-20T02:09:47;8.75;;;5.28;;
58017;SDS011;43810;50.860;19.226;2023-07-20T02:12:13;10.75;;;6.20;;
58017;SDS011;43810;50.860;19.226;2023-07-20T02:14:39;12.27;;;5.57;;
58017;SDS011;43810;50.860;19.226;2023-07-20T02:17:05;9.85;;;6.38;;
58017;SDS011;43810;50.860;19.226;2023-07-20T02:19:31;10.57;;;6.45;;
58017;SDS011;43810;50.860;19.226;2023-07-20T02:21:56;10.57;;;6.53;;
58017;SDS011;43810;50.860;19.226;2023-07-20T02:24:23;11.80;;;7.18;;
58017;SDS011;43810;50.860;19.226;2023-07-20T02:26:50;16.42;;;7.68;;
58017;SDS011;43810;50.860;19.226;2023-07-20T02:29:16;14.52;;;7.30;;
58017;SDS011;43810;50.860;19.226;2023-07-20T02:31:41;12.50;;;7.97;;
58017;SDS011;43810;50.860;19.226;2023-07-20T02:34:08;11.75;;;6.97;;
58017;SDS011;43810;50.860;19.226;2023-07-20T02:36:34;12.57;;;7.45;;
58017;SDS011;43810;50.860;19.226;2023-07-20T02:39:00;14.60;;;7.50;;
58017;SDS011;43810;50.860;19.226;2023-07-20T02:41:30;11.40;;;7.32;;
58017;SDS011;43810;50.860;19.226;2023-07-20T02:43:56;12.48;;;7.35;;
58017;SDS011;43810;50.860;19.226;2023-07-20T02:46:22;11.93;;;7.00;;
58017;SDS011;43810;50.860;19.226;2023-07-20T02:48:48;13.75;;;7.95;;
58017;SDS011;43810;50.860;19.226;2023-07-20T02:51:13;11.55;;;7.82;;
58017;SDS011;43810;50.860;19.226;2023-07-20T02:53:39;13.70;;;7.90;;
58017;SDS011;43810;50.860;19.226;2023-07-20T02:56:05;13.05;;;8.13;;
58017;SDS011;43810;50.860;19.226;2023-07-20T02:58:31;10.38;;;7.40;;
58017;SDS011;43810;50.860;19.226;2023-07-20T03:01:02;11.63;;;7.65;;
58017;SDS011;43810;50.860;19.226;2023-07-20T03:03:28;12.70;;;7.72;;
58017;SDS011;43810;50.860;19.226;2023-07-20T03:05:54;14.88;;;8.32;;
58017;SDS011;43810;50.860;19.226;2023-07-20T03:08:21;15.18;;;8.07;;
58017;SDS011;43810;50.860;19.226;2023-07-20T03:10:47;24.52;;;9.23;;
58017;SDS011;43810;50.860;19.226;2023-07-20T03:13:13;12.73;;;8.35;;
58017;SDS011;43810;50.860;19.226;2023-07-20T03:15:39;10.48;;;8.15;;
58017;SDS011;43810;50.860;19.226;2023-07-20T03:18:05;14.45;;;9.45;;
58017;SDS011;43810;50.860;19.226;2023-07-20T03:20:31;13.13;;;8.40;;
58017;SDS011;43810;50.860;19.226;2023-07-20T03:22:57;15.73;;;8.20;;
58017;SDS011;43810;50.860;19.226;2023-07-20T03:25:22;10.55;;;7.85;;
58017;SDS011;43810;50.860;19.226;2023-07-20T03:27:48;13.23;;;8.50;;
58017;SDS011;43810;50.860;19.226;2023-07-20T03:30:14;10.65;;;8.65;;
58017;SDS011;43810;50.860;19.226;2023-07-20T03:32:40;14.13;;;8.57;;
58017;SDS011;43810;50.860;19.226;2023-07-20T03:35:06;11.50;;;8.43;;
58017;SDS011;43810;50.860;19.226;2023-07-20T03:37:35;14.98;;;9.90;;
58017;SDS011;43810;50.860;19.226;2023-07-20T03:40:02;11.32;;;8.48;;
58017;SDS011;43810;50.860;19.226;2023-07-20T03:42:28;13.10;;;9.25;;
58017;SDS011;43810;50.860;19.226;2023-07-20T03:44:54;15.00;;;9.30;;
58017;SDS011;43810;50.860;19.226;2023-07-20T03:47:19;13.73;;;8.77;;
58017;SDS011;43810;50.860;19.226;2023-07-20T03:49:45;10.57;;;8.00;;
58017;SDS011;43810;50.860;19.226;2023-07-20T03:52:11;12.57;;;8.68;;
58017;SDS011;43810;50.860;19.226;2023-07-20T03:54:37;11.82;;;7.68;;
58017;SDS011;43810;50.860;19.226;2023-07-20T03:57:03;12.50;;;8.07;;
58017;SDS011;43810;50.860;19.226;2023-07-20T03:59:29;11.65;;;7.90;;
58017;SDS011;43810;50.860;19.226;2023-07-20T04:01:54;12.98;;;7.25;;
58017;SDS011;43810;50.860;19.226;2023-07-20T04:04:20;9.00;;;7.20;;
58017;SDS011;43810;50.860;19.226;2023-07-20T04:06:46;9.45;;;6.70;;
58017;SDS011;43810;50.860;19.226;2023-07-20T04:09:12;10.00;;;6.60;;
58017;SDS011;43810;50.860;19.226;2023-07-20T04:11:38;8.88;;;6.47;;
58017;SDS011;43810;50.860;19.226;2023-07-20T04:14:04;8.10;;;6.03;;
58017;SDS011;43810;50.860;19.226;2023-07-20T04:16:30;9.02;;;6.43;;
58017;SDS011;43810;50.860;19.226;2023-07-20T04:18:56;7.85;;;6.20;;
58017;SDS011;43810;50.860;19.226;2023-07-20T04:21:23;10.15;;;6.35;;
58017;SDS011;43810;50.860;19.226;2023-07-20T04:23:51;6.55;;;5.10;;
58017;SDS011;43810;50.860;19.226;2023-07-20T04:26:17;9.65;;;5.93;;
58017;SDS011;43810;50.860;19.226;2023-07-20T04:28:43;8.70;;;5.97;;
58017;SDS011;43810;50.860;19.226;2023-07-20T04:31:12;11.70;;;6.75;;
58017;SDS011;43810;50.860;19.226;2023-07-20T04:33:39;11.98;;;5.68;;
58017;SDS011;43810;50.860;19.226;2023-07-20T04:36:05;9.18;;;5.80;;
58017;SDS011;43810;50.860;19.226;2023-07-20T04:38:31;10.35;;;5.20;;
58017;SDS011;43810;50.860;19.226;2023-07-20T04:40:57;8.95;;;5.03;;
58017;SDS011;43810;50.860;19.226;2023-07-20T04:43:22;7.00;;;5.43;;
58017;SDS011;43810;50.860;19.226;2023-07-20T04:45:48;8.18;;;5.38;;
58017;SDS011;43810;50.860;19.226;2023-07-20T04:48:15;7.47;;;4.70;;
58017;SDS011;43810;50.860;19.226;2023-07-20T04:50:45;6.57;;;5.90;;
58017;SDS011;43810;50.860;19.226;2023-07-20T04:53:12;6.25;;;4.72;;
58017;SDS011;43810;50.860;19.226;2023-07-20T04:55:39;7.30;;;4.80;;
58017;SDS011;43810;50.860;19.226;2023-07-20T04:58:05;8.27;;;4.85;;
58017;SDS011;43810;50.860;19.226;2023-07-20T05:00:34;9.65;;;4.47;;
58017;SDS011;43810;50.860;19.226;2023-07-20T05:03:03;5.97;;;3.78;;
58017;SDS011;43810;50.860;19.226;2023-07-20T05:05:30;3.95;;;3.17;;
58017;SDS011;43810;50.860;19.226;2023-07-20T05:07:57;4.80;;;3.83;;
58017;SDS011;43810;50.860;19.226;2023-07-20T05:10:23;6.47;;;3.25;;
58017;SDS011;43810;50.860;19.226;2023-07-20T05:12:49;7.40;;;4.28;;
58017;SDS011;43810;50.860;19.226;2023-07-20T05:15:15;4.63;;;3.28;;
58017;SDS011;43810;50.860;19.226;2023-07-20T05:17:41;3.25;;;2.95;;
58017;SDS011;43810;50.860;19.226;2023-07-20T05:20:07;3.80;;;3.00;;
58017;SDS011;43810;50.860;19.226;2023-07-20T05:22:35;4.20;;;3.30;;
58017;SDS011;43810;50.860;19.226;2023-07-20T05:25:06;4.15;;;2.92;;
58017;SDS011;43810;50.860;19.226;2023-07-20T05:27:33;5.38;;;3.28;;
58017;SDS011;43810;50.860;19.226;2023-07-20T05:30:00;4.38;;;2.80;;
58017;SDS011;43810;50.860;19.226;2023-07-20T05:32:26;3.47;;;2.63;;
58017;SDS011;43810;50.860;19.226;2023-07-20T05:34:52;3.15;;;2.53;;
58017;SDS011;43810;50.860;19.226;2023-07-20T05:37:19;3.40;;;2.65;;
58017;SDS011;43810;50.860;19.226;2023-07-20T05:39:45;4.07;;;2.50;;
58017;SDS011;43810;50.860;19.226;2023-07-20T05:42:11;3.33;;;3.00;;
58017;SDS011;43810;50.860;19.226;2023-07-20T05:44:37;3.17;;;2.53;;
58017;SDS011;43810;50.860;19.226;2023-07-20T05:47:03;3.40;;;2.03;;
58017;SDS011;43810;50.860;19.226;2023-07-20T05:49:29;4.05;;;2.17;;
58017;SDS011;43810;50.860;19.226;2023-07-20T05:51:55;3.63;;;2.28;;
58017;SDS011;43810;50.860;19.226;2023-07-20T05:54:23;3.33;;;1.90;;
58017;SDS011;43810;50.860;19.226;2023-07-20T05:56:52;5.25;;;1.95;;
58017;SDS011;43810;50.860;19.226;2023-07-20T05:59:19;2.50;;;1.90;;
58017;SDS011;43810;50.860;19.226;2023-07-20T06:01:45;2.70;;;1.80;;
58017;SDS011;43810;50.860;19.226;2023-07-20T06:04:12;2.17;;;1.58;;
58017;SDS011;43810;50.860;19.226;2023-07-20T06:06:38;3.05;;;1.30;;
58017;SDS011;43810;50.860;19.226;2023-07-20T06:09:04;2.05;;;1.52;;
58017;SDS011;43810;50.860;19.226;2023-07-20T06:11:31;1.83;;;1.55;;
58017;SDS011;43810;50.860;19.226;2023-07-20T06:13:57;4.50;;;1.65;;
58017;SDS011;43810;50.860;19.226;2023-07-20T06:16:22;2.70;;;1.50;;
58017;SDS011;43810;50.860;19.226;2023-07-20T06:18:48;3.70;;;1.85;;
58017;SDS011;43810;50.860;19.226;2023-07-20T06:21:14;3.63;;;1.50;;
58017;SDS011;43810;50.860;19.226;2023-07-20T06:23:40;2.63;;;1.40;;
58017;SDS011;43810;50.860;19.226;2023-07-20T06:26:06;1.40;;;1.20;;
58017;SDS011;43810;50.860;19.226;2023-07-20T06:28:33;2.45;;;1.58;;
58017;SDS011;43810;50.860;19.226;2023-07-20T06:30:59;2.30;;;1.50;;
58017;SDS011;43810;50.860;19.226;2023-07-20T06:33:26;4.32;;;2.38;;
58017;SDS011;43810;50.860;19.226;2023-07-20T06:35:52;2.30;;;1.60;;
58017;SDS011;43810;50.860;19.226;2023-07-20T06:38:18;2.38;;;1.70;;
58017;SDS011;43810;50.860;19.226;2023-07-20T06:40:47;2.78;;;1.80;;
58017;SDS011;43810;50.860;19.226;2023-07-20T06:43:14;2.65;;;2.15;;
58017;SDS011;43810;50.860;19.226;2023-07-20T06:45:40;3.33;;;1.88;;
58017;SDS011;43810;50.860;19.226;2023-07-20T06:48:07;3.35;;;2.03;;
58017;SDS011;43810;50.860;19.226;2023-07-20T06:50:33;3.03;;;2.03;;
58017;SDS011;43810;50.860;19.226;2023-07-20T06:52:59;3.95;;;2.10;;
58017;SDS011;43810;50.860;19.226;2023-07-20T06:55:26;3.83;;;2.00;;
58017;SDS011;43810;50.860;19.226;2023-07-20T06:57:52;4.45;;;2.25;;
58017;SDS011;43810;50.860;19.226;2023-07-20T07:00:17;3.63;;;2.05;;
58017;SDS011;43810;50.860;19.226;2023-07-20T07:02:44;3.28;;;1.73;;
58017;SDS011;43810;50.860;19.226;2023-07-20T07:05:09;3.58;;;2.13;;
58017;SDS011;43810;50.860;19.226;2023-07-20T07:07:35;2.80;;;1.92;;
58017;SDS011;43810;50.860;19.226;2023-07-20T07:10:01;2.85;;;2.35;;
58017;SDS011;43810;50.860;19.226;2023-07-20T07:12:30;3.70;;;2.53;;
58017;SDS011;43810;50.860;19.226;2023-07-20T07:14:56;3.13;;;2.20;;
58017;SDS011;43810;50.860;19.226;2023-07-20T07:17:22;4.47;;;2.38;;
58017;SDS011;43810;50.860;19.226;2023-07-20T07:19:48;6.40;;;2.60;;
58017;SDS011;43810;50.860;19.226;2023-07-20T07:22:14;2.65;;;2.00;;
58017;SDS011;43810;50.860;19.226;2023-07-20T07:24:39;5.10;;;2.88;;
58017;SDS011;43810;50.860;19.226;2023-07-20T07:27:08;6.32;;;2.90;;
58017;SDS011;43810;50.860;19.226;2023-07-20T07:29:34;3.85;;;3.05;;
58017;SDS011;43810;50.860;19.226;2023-07-20T07:32:00;4.95;;;2.90;;
58017;SDS011;43810;50.860;19.226;2023-07-20T07:34:26;4.57;;;2.60;;
58017;SDS011;43810;50.860;19.226;2023-07-20T07:36:53;4.40;;;2.67;;
58017;SDS011;43810;50.860;19.226;2023-07-20T07:39:18;3.28;;;2.90;;
58017;SDS011;43810;50.860;19.226;2023-07-20T07:41:45;2.75;;;2.38;;
58017;SDS011;43810;50.860;19.226;2023-07-20T07:44:11;4.30;;;2.42;;
58017;SDS011;43810;50.860;19.226;2023-07-20T07:46:37;4.28;;;2.92;;
58017;SDS011;43810;50.860;19.226;2023-07-20T07:49:03;5.80;;;2.65;;
58017;SDS011;43810;50.860;19.226;2023-07-20T07:51:29;5.30;;;2.50;;
58017;SDS011;43810;50.860;19.226;2023-07-20T07:53:55;5.20;;;2.97;;
58017;SDS011;43810;50.860;19.226;2023-07-20T07:56:21;4.50;;;3.28;;
58017;SDS011;43810;50.860;19.226;2023-07-20T07:58:50;3.78;;;2.95;;
58017;SDS011;43810;50.860;19.226;2023-07-20T08:01:19;5.00;;;3.22;;
58017;SDS011;43810;50.860;19.226;2023-07-20T08:03:45;5.20;;;3.30;;
58017;SDS011;43810;50.860;19.226;2023-07-20T08:06:13;5.72;;;3.22;;
58017;SDS011;43810;50.860;19.226;2023-07-20T08:08:39;4.00;;;3.13;;
58017;SDS011;43810;50.860;19.226;2023-07-20T08:11:05;4.13;;;2.95;;
58017;SDS011;43810;50.860;19.226;2023-07-20T08:13:31;5.57;;;3.00;;
58017;SDS011;43810;50.860;19.226;2023-07-20T08:15:58;4.53;;;2.75;;
58017;SDS011;43810;50.860;19.226;2023-07-20T08:18:25;6.60;;;2.88;;
58017;SDS011;43810;50.860;19.226;2023-07-20T08:20:57;3.80;;;2.80;;
58017;SDS011;43810;50.860;19.226;2023-07-20T08:23:25;4.03;;;2.63;;
58017;SDS011;43810;50.860;19.226;2023-07-20T08:25:53;5.78;;;3.30;;
58017;SDS011;43810;50.860;19.226;2023-07-20T08:28:19;5.10;;;3.15;;
58017;SDS011;43810;50.860;19.226;2023-07-20T08:30:48;3.70;;;3.30;;
58017;SDS011;43810;50.860;19.226;2023-07-20T08:33:15;7.93;;;3.03;;
58017;SDS011;43810;50.860;19.226;2023-07-20T08:35:46;6.07;;;2.97;;
58017;SDS011;43810;50.860;19.226;2023-07-20T08:38:12;6.57;;;3.13;;
58017;SDS011;43810;50.860;19.226;2023-07-20T08:40:40;3.17;;;2.70;;
58017;SDS011;43810;50.860;19.226;2023-07-20T08:43:14;5.13;;;3.20;;
58017;SDS011;43810;50.860;19.226;2023-07-20T08:45:44;3.25;;;2.83;;
58017;SDS011;43810;50.860;19.226;2023-07-20T08:48:10;4.03;;;3.03;;
58017;SDS011;43810;50.860;19.226;2023-07-20T08:50:40;5.50;;;2.72;;
58017;SDS011;43810;50.860;19.226;2023-07-20T08:53:08;3.25;;;2.90;;
58017;SDS011;43810;50.860;19.226;2023-07-20T08:55:37;5.50;;;3.03;;
58017;SDS011;43810;50.860;19.226;2023-07-20T08:58:07;6.63;;;2.80;;
58017;SDS011;43810;50.860;19.226;2023-07-20T09:00:36;2.95;;;2.50;;
58017;SDS011;43810;50.860;19.226;2023-07-20T09:03:04;3.65;;;2.35;;
58017;SDS011;43810;50.860;19.226;2023-07-20T09:05:32;4.82;;;2.42;;
58017;SDS011;43810;50.860;19.226;2023-07-20T09:08:00;3.38;;;2.50;;
58017;SDS011;43810;50.860;19.226;2023-07-20T09:10:29;5.75;;;2.08;;
58017;SDS011;43810;50.860;19.226;2023-07-20T09:12:55;4.07;;;2.10;;
58017;SDS011;43810;50.860;19.226;2023-07-20T09:15:22;2.53;;;2.33;;
58017;SDS011;43810;50.860;19.226;2023-07-20T09:17:48;3.67;;;2.47;;
58017;SDS011;43810;50.860;19.226;2023-07-20T09:20:18;4.00;;;2.40;;
58017;SDS011;43810;50.860;19.226;2023-07-20T09:22:44;5.65;;;2.85;;
58017;SDS011;43810;50.860;19.226;2023-07-20T09:25:14;2.20;;;1.85;;
58017;SDS011;43810;50.860;19.226;2023-07-20T09:27:42;3.45;;;2.30;;
58017;SDS011;43810;50.860;19.226;2023-07-20T09:30:16;3.80;;;2.08;;
58017;SDS011;43810;50.860;19.226;2023-07-20T09:32:45;3.97;;;2.35;;
58017;SDS011;43810;50.860;19.226;2023-07-20T09:35:13;3.05;;;2.20;;
58017;SDS011;43810;50.860;19.226;2023-07-20T09:37:54;3.58;;;2.03;;
58017;SDS011;43810;50.860;19.226;2023-07-20T09:40:29;3.20;;;1.77;;
58017;SDS011;43810;50.860;19.226;2023-07-20T09:42:55;2.50;;;1.83;;
58017;SDS011;43810;50.860;19.226;2023-07-20T09:45:29;3.97;;;2.08;;
58017;SDS011;43810;50.860;19.226;2023-07-20T09:48:08;3.63;;;2.10;;
58017;SDS011;43810;50.860;19.226;2023-07-20T09:50:41;4.90;;;1.83;;
58017;SDS011;43810;50.860;19.226;2023-07-20T09:53:13;6.28;;;2.13;;
58017;SDS011;43810;50.860;19.226;2023-07-20T09:55:40;2.47;;;2.28;;
58017;SDS011;43810;50.860;19.226;2023-07-20T09:58:08;3.60;;;2.20;;
58017;SDS011;43810;50.860;19.226;2023-07-20T10:00:36;4.15;;;2.10;;
58017;SDS011;43810;50.860;19.226;2023-07-20T10:03:03;4.40;;;1.55;;
58017;SDS011;43810;50.860;19.226;2023-07-20T10:05:34;3.75;;;2.35;;
58017;SDS011;43810;50.860;19.226;2023-07-20T10:08:02;3.78;;;2.28;;
58017;SDS011;43810;50.860;19.226;2023-07-20T10:10:31;2.70;;;2.30;;
58017;SDS011;43810;50.860;19.226;2023-07-20T10:13:01;3.25;;;2.15;;
58017;SDS011;43810;50.860;19.226;2023-07-20T10:15:32;4.22;;;2.03;;
58017;SDS011;43810;50.860;19.226;2023-07-20T10:20:47;7.45;;;2.15;;
58017;SDS011;43810;50.860;19.226;2023-07-20T10:23:14;2.05;;;1.85;;
58017;SDS011;43810;50.860;19.226;2023-07-20T10:25:40;3.53;;;2.40;;
58017;SDS011;43810;50.860;19.226;2023-07-20T10:28:13;2.13;;;1.80;;
58017;SDS011;43810;50.860;19.226;2023-07-20T10:30:40;3.33;;;2.05;;
58017;SDS011;43810;50.860;19.226;2023-07-20T10:33:07;3.78;;;2.00;;
58017;SDS011;43810;50.860;19.226;2023-07-20T10:35:54;3.53;;;1.80;;
58017;SDS011;43810;50.860;19.226;2023-07-20T10:38:40;2.78;;;1.80;;
58017;SDS011;43810;50.860;19.226;2023-07-20T10:41:17;2.80;;;1.83;;
58017;SDS011;43810;50.860;19.226;2023-07-20T10:43:44;2.42;;;1.67;;
58017;SDS011;43810;50.860;19.226;2023-07-20T10:46:14;4.10;;;1.85;;
58017;SDS011;43810;50.860;19.226;2023-07-20T10:49:02;5.25;;;1.83;;
58017;SDS011;43810;50.860;19.226;2023-07-20T10:51:47;1.52;;;1.42;;
58017;SDS011;43810;50.860;19.226;2023-07-20T10:56:46;3.35;;;1.75;;
58017;SDS011;43810;50.860;19.226;2023-07-20T10:59:20;2.08;;;1.50;;
58017;SDS011;43810;50.860;19.226;2023-07-20T11:02:06;3.85;;;1.83;;
58017;SDS011;43810;50.860;19.226;2023-07-20T11:04:41;4.35;;;2.13;;
58017;SDS011;43810;50.860;19.226;2023-07-20T11:07:15;3.85;;;1.85;;
58017;SDS011;43810;50.860;19.226;2023-07-20T11:09:42;2.88;;;1.85;;
58017;SDS011;43810;50.860;19.226;2023-07-20T11:12:15;7.88;;;2.05;;
58017;SDS011;43810;50.860;19.226;2023-07-20T11:14:44;3.90;;;2.22;;
58017;SDS011;43810;50.860;19.226;2023-07-20T11:17:19;4.57;;;2.45;;
58017;SDS011;43810;50.860;19.226;2023-07-20T11:19:48;2.97;;;2.20;;
58017;SDS011;43810;50.860;19.226;2023-07-20T11:22:17;3.47;;;2.10;;
58017;SDS011;43810;50.860;19.226;2023-07-20T11:24:45;2.50;;;2.05;;
58017;SDS011;43810;50.860;19.226;2023-07-20T11:27:11;4.47;;;2.28;;
58017;SDS011;43810;50.860;19.226;2023-07-20T11:29:37;3.92;;;2.30;;
58017;SDS011;43810;50.860;19.226;2023-07-20T11:32:03;3.92;;;2.20;;
58017;SDS011;43810;50.860;19.226;2023-07-20T11:34:30;6.35;;;1.65;;
58017;SDS011;43810;50.860;19.226;2023-07-20T11:36:59;2.25;;;1.55;;
58017;SDS011;43810;50.860;19.226;2023-07-20T11:39:29;1.58;;;1.42;;
58017;SDS011;43810;50.860;19.226;2023-07-20T11:41:56;2.40;;;1.83;;
58017;SDS011;43810;50.860;19.226;2023-07-20T11:44:27;5.38;;;2.00;;
58017;SDS011;43810;50.860;19.226;2023-07-20T11:47:00;2.33;;;1.90;;
58017;SDS011;43810;50.860;19.226;2023-07-20T11:49:41;3.15;;;2.00;;
58017;SDS011;43810;50.860;19.226;2023-07-20T11:52:09;2.38;;;2.13;;
58017;SDS011;43810;50.860;19.226;2023-07-20T11:54:40;2.35;;;1.83;;
58017;SDS011;43810;50.860;19.226;2023-07-20T11:57:16;2.37;;;2.10;;
58017;SDS011;43810;50.860;19.226;2023-07-20T11:59:57;2.13;;;1.90;;
58017;SDS011;43810;50.860;19.226;2023-07-20T12:02:32;2.63;;;2.20;;
58017;SDS011;43810;50.860;19.226;2023-07-20T12:04:58;2.33;;;2.13;;
58017;SDS011;43810;50.860;19.226;2023-07-20T12:07:26;2.55;;;1.77;;
58017;SDS011;43810;50.860;19.226;2023-07-20T12:10:08;4.90;;;2.05;;
58017;SDS011;43810;50.860;19.226;2023-07-20T12:12:39;3.88;;;1.67;;
58017;SDS011;43810;50.860;19.226;2023-07-20T12:15:16;2.57;;;1.80;;
58017;SDS011;43810;50.860;19.226;2023-07-20T12:17:43;4.40;;;1.98;;
58017;SDS011;43810;50.860;19.226;2023-07-20T12:20:10;2.50;;;2.03;;
58017;SDS011;43810;50.860;19.226;2023-07-20T12:22:39;2.88;;;1.92;;
58017;SDS011;43810;50.860;19.226;2023-07-20T12:25:09;4.15;;;1.80;;
58017;SDS011;43810;50.860;19.226;2023-07-20T12:27:36;3.75;;;1.23;;
58017;SDS011;43810;50.860;19.226;2023-07-20T12:30:03;0.80;;;0.80;;
58017;SDS011;43810;50.860;19.226;2023-07-20T12:32:31;1.23;;;0.98;;
58017;SDS011;43810;50.860;19.226;2023-07-20T12:34:57;1.23;;;1.13;;
58017;SDS011;43810;50.860;19.226;2023-07-20T12:37:23;1.20;;;0.77;;
58017;SDS011;43810;50.860;19.226;2023-07-20T12:39:49;2.10;;;1.10;;
58017;SDS011;43810;50.860;19.226;2023-07-20T12:42:14;2.78;;;1.20;;
58017;SDS011;43810;50.860;19.226;2023-07-20T12:44:41;3.63;;;1.40;;
58017;SDS011;43810;50.860;19.226;2023-07-20T12:47:07;1.27;;;1.15;;
58017;SDS011;43810;50.860;19.226;2023-07-20T12:49:33;2.50;;;1.20;;
58017;SDS011;43810;50.860;19.226;2023-07-20T12:51:59;4.75;;;1.23;;
58017;SDS011;43810;50.860;19.226;2023-07-20T12:54:24;1.85;;;1.10;;
58017;SDS011;43810;50.860;19.226;2023-07-20T12:56:50;3.17;;;1.25;;
58017;SDS011;43810;50.860;19.226;2023-07-20T12:59:16;2.05;;;1.00;;
58017;SDS011;43810;50.860;19.226;2023-07-20T13:01:42;1.05;;;0.93;;
58017;SDS011;43810;50.860;19.226;2023-07-20T13:04:09;2.78;;;1.23;;
58017;SDS011;43810;50.860;19.226;2023-07-20T13:06:35;1.48;;;1.10;;
58017;SDS011;43810;50.860;19.226;2023-07-20T13:09:01;3.22;;;1.02;;
58017;SDS011;43810;50.860;19.226;2023-07-20T13:11:28;1.67;;;1.23;;
58017;SDS011;43810;50.860;19.226;2023-07-20T13:13:54;2.65;;;1.25;;
58017;SDS011;43810;50.860;19.226;2023-07-20T13:16:20;1.65;;;1.27;;
58017;SDS011;43810;50.860;19.226;2023-07-20T13:18:46;2.03;;;1.20;;
58017;SDS011;43810;50.860;19.226;2023-07-20T13:21:19;2.17;;;1.30;;
58017;SDS011;43810;50.860;19.226;2023-07-20T13:23:49;1.33;;;0.68;;
58017;SDS011;43810;50.860;19.226;2023-07-20T13:26:17;3.58;;;0.95;;
58017;SDS011;43810;50.860;19.226;2023-07-20T13:28:46;0.98;;;0.93;;
58017;SDS011;43810;50.860;19.226;2023-07-20T13:31:12;1.10;;;1.00;;
58017;SDS011;43810;50.860;19.226;2023-07-20T13:33:38;2.65;;;1.10;;
58017;SDS011;43810;50.860;19.226;2023-07-20T13:36:06;4.45;;;1.38;;
58017;SDS011;43810;50.860;19.226;2023-07-20T13:38:32;1.42;;;1.10;;
58017;SDS011;43810;50.860;19.226;2023-07-20T13:40:58;3.40;;;1.30;;
58017;SDS011;43810;50.860;19.226;2023-07-20T13:43:24;5.53;;;1.20;;
58017;SDS011;43810;50.860;19.226;2023-07-20T13:45:50;4.75;;;1.00;;
58017;SDS011;43810;50.860;19.226;2023-07-20T13:48:16;2.00;;;1.13;;
58017;SDS011;43810;50.860;19.226;2023-07-20T13:50:45;1.75;;;1.00;;
58017;SDS011;43810;50.860;19.226;2023-07-20T13:53:11;2.63;;;1.00;;
58017;SDS011;43810;50.860;19.226;2023-07-20T13:55:41;2.03;;;1.33;;
58017;SDS011;43810;50.860;19.226;2023-07-20T13:58:07;1.05;;;1.02;;
58017;SDS011;43810;50.860;19.226;2023-07-20T14:00:35;1.52;;;1.17;;
58017;SDS011;43810;50.860;19.226;2023-07-20T14:03:01;1.88;;;1.17;;
58017;SDS011;43810;50.860;19.226;2023-07-20T14:05:29;1.40;;;1.30;;
58017;SDS011;43810;50.860;19.226;2023-07-20T14:07:54;2.15;;;1.77;;
58017;SDS011;43810;50.860;19.226;2023-07-20T14:10:20;3.42;;;1.55;;
58017;SDS011;43810;50.860;19.226;2023-07-20T14:12:46;2.10;;;1.50;;
58017;SDS011;43810;50.860;19.226;2023-07-20T14:15:12;3.15;;;1.27;;
58017;SDS011;43810;50.860;19.226;2023-07-20T14:17:38;2.80;;;1.73;;
58017;SDS011;43810;50.860;19.226;2023-07-20T14:20:04;2.63;;;1.65;;
58017;SDS011;43810;50.860;19.226;2023-07-20T14:22:31;3.45;;;1.35;;
58017;SDS011;43810;50.860;19.226;2023-07-20T14:24:57;1.40;;;1.15;;
58017;SDS011;43810;50.860;19.226;2023-07-20T14:27:26;3.97;;;1.42;;
58017;SDS011;43810;50.860;19.226;2023-07-20T14:29:54;1.98;;;1.20;;
58017;SDS011;43810;50.860;19.226;2023-07-20T14:32:22;1.48;;;1.30;;
58017;SDS011;43810;50.860;19.226;2023-07-20T14:34:48;1.40;;;1.30;;
58017;SDS011;43810;50.860;19.226;2023-07-20T14:37:13;1.70;;;1.60;;
58017;SDS011;43810;50.860;19.226;2023-07-20T14:39:40;1.90;;;1.65;;
58017;SDS011;43810;50.860;19.226;2023-07-20T14:42:08;2.75;;;1.65;;
58017;SDS011;43810;50.860;19.226;2023-07-20T14:44:37;3.70;;;1.98;;
58017;SDS011;43810;50.860;19.226;2023-07-20T14:47:03;2.47;;;1.52;;
58017;SDS011;43810;50.860;19.226;2023-07-20T14:49:29;2.00;;;1.70;;
58017;SDS011;43810;50.860;19.226;2023-07-20T14:52:00;2.65;;;1.80;;